createdAt,value
2018-07-03T00:01:43.132Z,1.10
2018-07-03T00:04:11.600Z,1.10
2018-07-03T00:06:40.033Z,1.20
2018-07-03T00:09:09.570Z,1.47
2018-07-03T00:11:37.990Z,1.20
2018-07-03T00:14:06.489Z,1.30
2018-07-03T00:16:40.341Z,1.67
2018-07-03T00:19:08.824Z,1.50
2018-07-03T00:21:37.611Z,1.50
2018-07-03T00:24:06.083Z,1.40
2018-07-03T00:26:34.541Z,1.23
2018-07-03T00:29:02.972Z,1.40
2018-07-03T00:31:31.460Z,1.57
2018-07-03T00:33:59.893Z,1.30
2018-07-03T00:36:28.343Z,1.37
2018-07-03T00:38:56.756Z,1.53
2018-07-03T00:41:25.200Z,2.00
2018-07-03T00:43:54.084Z,1.83
2018-07-03T00:46:22.550Z,2.50
2018-07-03T00:48:51.017Z,2.83
2018-07-03T00:51:19.437Z,4.33
2018-07-03T00:53:47.884Z,3.90
2018-07-03T00:56:16.297Z,3.67
2018-07-03T00:58:44.759Z,3.83
2018-07-03T01:01:13.192Z,3.30
2018-07-03T01:03:41.641Z,3.77
2018-07-03T01:06:10.080Z,3.10
2018-07-03T01:08:38.580Z,3.80
2018-07-03T01:11:07.033Z,4.70
2018-07-03T01:13:35.652Z,3.23
2018-07-03T01:16:04.161Z,3.20
2018-07-03T01:18:32.641Z,2.73
2018-07-03T01:21:00.756Z,2.90
2018-07-03T01:23:29.282Z,2.60
2018-07-03T01:25:57.720Z,2.10
2018-07-03T01:31:16.844Z,2.27
2018-07-03T01:33:45.372Z,2.40
2018-07-03T01:36:13.884Z,2.27
2018-07-03T01:38:42.352Z,2.27
2018-07-03T01:41:10.780Z,2.20
2018-07-03T01:43:39.688Z,2.37
2018-07-03T01:46:08.286Z,1.90
2018-07-03T01:48:36.824Z,2.27
2018-07-03T01:51:05.238Z,2.00
2018-07-03T01:53:33.720Z,2.00
2018-07-03T01:56:02.161Z,2.27
2018-07-03T01:58:30.601Z,2.20
2018-07-03T02:00:59.112Z,2.50
2018-07-03T02:03:27.581Z,2.10
2018-07-03T02:05:56.025Z,2.90
2018-07-03T02:08:24.460Z,2.87
2018-07-03T02:10:52.912Z,2.80
2018-07-03T02:13:21.384Z,2.30
2018-07-03T02:15:49.790Z,2.20
2018-07-03T02:18:18.256Z,2.10
2018-07-03T02:20:46.690Z,2.10
2018-07-03T02:23:15.136Z,1.87
2018-07-03T02:25:43.240Z,1.80
2018-07-03T02:28:11.745Z,2.20
2018-07-03T02:30:40.192Z,2.00
2018-07-03T02:33:08.635Z,1.80
2018-07-03T02:35:37.101Z,2.03
2018-07-03T02:38:05.541Z,1.70
2018-07-03T02:40:34.004Z,1.97
2018-07-03T02:43:02.497Z,2.13
2018-07-03T02:45:30.908Z,1.80
2018-07-03T02:47:59.365Z,1.63
2018-07-03T02:50:27.781Z,1.70
2018-07-03T02:52:56.213Z,1.70
2018-07-03T02:55:24.669Z,1.73
2018-07-03T02:57:53.139Z,1.40
2018-07-03T03:00:21.583Z,1.63
2018-07-03T03:02:50.045Z,1.70
2018-07-03T03:05:18.464Z,1.67
2018-07-03T03:07:46.897Z,1.47
2018-07-03T03:10:15.352Z,1.60
2018-07-03T03:12:43.892Z,1.47
2018-07-03T03:15:12.557Z,1.47
2018-07-03T03:17:40.973Z,1.07
2018-07-03T03:20:09.453Z,1.80
2018-07-03T03:22:37.952Z,1.30
2018-07-03T03:25:06.513Z,1.53
2018-07-03T03:27:34.948Z,1.33
2018-07-03T03:30:03.424Z,1.27
2018-07-03T03:32:32.022Z,1.20
2018-07-03T03:35:00.444Z,1.40
2018-07-03T03:37:28.873Z,1.10
2018-07-03T03:39:57.305Z,1.20
2018-07-03T03:42:25.792Z,1.23
2018-07-03T03:44:54.237Z,1.10
2018-07-03T03:47:22.645Z,1.07
2018-07-03T03:49:51.098Z,1.20
2018-07-03T03:52:19.528Z,1.07
2018-07-03T03:54:47.950Z,1.40
2018-07-03T03:57:16.368Z,1.23
2018-07-03T03:59:44.816Z,1.07
2018-07-03T04:02:13.830Z,1.30
2018-07-03T04:04:42.264Z,1.50
2018-07-03T04:07:10.693Z,1.47
2018-07-03T04:09:39.108Z,1.40
2018-07-03T04:12:07.600Z,1.33
2018-07-03T04:14:36.027Z,2.23
2018-07-03T04:17:04.564Z,1.50
2018-07-03T04:19:32.968Z,1.50
2018-07-03T04:22:01.060Z,1.30
2018-07-03T04:24:29.500Z,1.60
2018-07-03T04:26:57.972Z,1.70
2018-07-03T04:29:26.437Z,1.73
2018-07-03T04:31:54.871Z,1.60
2018-07-03T04:34:23.313Z,1.60
2018-07-03T04:36:51.760Z,1.93
2018-07-03T04:39:20.229Z,1.77
2018-07-03T04:41:48.742Z,1.97
2018-07-03T04:44:17.172Z,1.90
2018-07-03T04:46:45.650Z,2.00
2018-07-03T04:49:14.052Z,2.17
2018-07-03T04:51:42.516Z,2.20
2018-07-03T04:54:10.937Z,2.33
2018-07-03T04:56:39.365Z,2.10
2018-07-03T04:59:08.096Z,2.40
2018-07-03T05:01:36.560Z,2.57
2018-07-03T05:04:05.029Z,2.20
2018-07-03T05:06:33.444Z,2.30
2018-07-03T05:09:01.888Z,2.40
2018-07-03T05:11:30.321Z,2.10
2018-07-03T05:13:58.738Z,2.13
2018-07-03T05:16:27.181Z,2.30
2018-07-03T05:18:55.605Z,2.33
2018-07-03T05:21:24.068Z,2.23
2018-07-03T05:23:52.512Z,2.30
2018-07-03T05:26:20.957Z,2.23
2018-07-03T05:28:50.245Z,2.10
2018-07-03T05:31:18.687Z,2.10
2018-07-03T05:33:47.143Z,2.40
2018-07-03T05:36:15.568Z,2.20
2018-07-03T05:38:44.021Z,2.10
2018-07-03T05:41:12.488Z,2.63
2018-07-03T05:43:40.941Z,1.80
2018-07-03T05:46:09.393Z,1.97
2018-07-03T05:48:37.820Z,2.40
2018-07-03T05:51:06.292Z,2.00
2018-07-03T05:53:34.729Z,2.30
2018-07-03T05:56:03.244Z,1.87
2018-07-03T05:58:31.672Z,2.23
2018-07-03T06:01:00.137Z,2.13
2018-07-03T06:03:28.596Z,2.37
2018-07-03T06:05:56.724Z,2.23
2018-07-03T06:08:25.266Z,2.27
2018-07-03T06:10:53.692Z,2.50
2018-07-03T06:13:22.141Z,2.60
2018-07-03T06:15:50.577Z,2.90
2018-07-03T06:18:18.893Z,3.53
2018-07-03T06:20:47.133Z,3.67
2018-07-03T06:23:15.561Z,3.23
2018-07-03T06:25:44.005Z,3.50
2018-07-03T06:28:12.472Z,3.10
2018-07-03T06:30:40.965Z,3.97
2018-07-03T06:33:09.402Z,3.87
2018-07-03T06:35:37.884Z,2.43
2018-07-03T06:38:06.301Z,3.20
2018-07-03T06:40:34.733Z,2.73
2018-07-03T06:43:03.290Z,3.30
2018-07-03T06:45:31.785Z,2.87
2018-07-03T06:48:00.241Z,2.47
2018-07-03T06:50:28.681Z,3.47
2018-07-03T06:52:57.165Z,4.90
2018-07-03T06:55:25.601Z,11.37
2018-07-03T06:57:54.222Z,3.80
2018-07-03T07:00:22.593Z,5.10
2018-07-03T07:02:51.065Z,5.03
2018-07-03T07:05:19.528Z,4.43
2018-07-03T07:07:47.960Z,4.87
2018-07-03T07:10:16.401Z,3.70
2018-07-03T07:12:44.892Z,2.20
2018-07-03T07:15:13.327Z,5.37
2018-07-03T07:17:41.775Z,3.43
2018-07-03T07:20:10.276Z,2.50
2018-07-03T07:22:38.777Z,2.77
2018-07-03T07:25:07.232Z,2.60
2018-07-03T07:27:35.692Z,4.20
2018-07-03T07:30:05.069Z,2.63
2018-07-03T07:32:33.496Z,2.93
2018-07-03T07:35:01.960Z,2.23
2018-07-03T07:37:30.397Z,3.70
2018-07-03T07:39:58.855Z,3.57
2018-07-03T07:42:27.312Z,2.37
2018-07-03T07:44:55.741Z,2.97
2018-07-03T07:47:24.169Z,2.77
2018-07-03T07:49:52.633Z,2.03
2018-07-03T07:52:21.060Z,1.70
2018-07-03T07:54:49.506Z,1.67
2018-07-03T07:57:17.993Z,1.87
2018-07-03T07:59:46.496Z,1.57
2018-07-03T08:02:14.917Z,1.47
2018-07-03T08:04:43.361Z,1.70
2018-07-03T08:07:11.789Z,1.93
2018-07-03T08:09:40.250Z,2.03
2018-07-03T08:12:08.838Z,1.47
2018-07-03T08:14:37.315Z,1.63
2018-07-03T08:17:05.764Z,1.80
2018-07-03T08:19:34.188Z,1.40
2018-07-03T08:22:02.653Z,2.83
2018-07-03T08:24:31.065Z,2.13
2018-07-03T08:26:59.514Z,1.80
2018-07-03T08:29:27.953Z,1.67
2018-07-03T08:31:56.427Z,1.77
2018-07-03T08:34:24.911Z,1.50
2018-07-03T08:36:53.357Z,1.53
2018-07-03T08:39:21.813Z,2.10
2018-07-03T08:41:50.229Z,2.03
2018-07-03T08:44:18.674Z,2.27
2018-07-03T08:46:47.082Z,1.57
2018-07-03T08:49:15.545Z,1.50
2018-07-03T08:51:44.052Z,1.33
2018-07-03T08:54:12.448Z,2.03
2018-07-03T08:56:40.925Z,2.10
2018-07-03T08:59:09.348Z,1.37
2018-07-03T09:01:37.805Z,2.20
2018-07-03T09:04:06.296Z,1.70
2018-07-03T09:06:34.728Z,1.47
2018-07-03T09:09:03.477Z,2.53
2018-07-03T09:11:31.958Z,1.97
2018-07-03T09:14:00.386Z,2.87
2018-07-03T09:16:28.853Z,1.30
2018-07-03T09:18:57.284Z,1.47
2018-07-03T09:21:25.736Z,0.90
2018-07-03T09:23:54.240Z,1.10
2018-07-03T09:26:22.670Z,1.30
2018-07-03T09:28:51.286Z,1.00
2018-07-03T09:31:19.768Z,1.03
2018-07-03T09:33:48.202Z,1.17
2018-07-03T09:36:16.724Z,1.10
2018-07-03T09:38:45.451Z,1.40
2018-07-03T09:41:13.900Z,1.30
2018-07-03T09:43:42.693Z,1.00
2018-07-03T09:46:11.116Z,1.20
2018-07-03T09:48:39.588Z,1.30
2018-07-03T09:51:08.040Z,1.10
2018-07-03T09:53:36.490Z,1.60
2018-07-03T09:56:04.973Z,1.07
2018-07-03T09:58:33.482Z,0.93
2018-07-03T10:01:06.113Z,1.00
2018-07-03T10:03:34.562Z,1.10
2018-07-03T10:06:03.063Z,1.00
2018-07-03T10:08:31.500Z,1.57
2018-07-03T10:10:59.988Z,0.87
2018-07-03T10:13:28.510Z,1.40
2018-07-03T10:15:56.980Z,0.73
2018-07-03T10:18:25.565Z,0.97
2018-07-03T10:20:54.031Z,0.90
2018-07-03T10:23:22.474Z,0.80
2018-07-03T10:25:50.908Z,0.93
2018-07-03T10:28:19.356Z,1.17
2018-07-03T10:30:47.805Z,0.83
2018-07-03T10:33:16.320Z,0.80
2018-07-03T10:35:44.749Z,1.20
2018-07-03T10:38:13.257Z,1.03
2018-07-03T10:40:41.755Z,1.40
2018-07-03T10:43:10.209Z,1.10
2018-07-03T10:45:38.640Z,1.27
2018-07-03T10:48:07.156Z,1.20
2018-07-03T10:50:36.100Z,1.07
2018-07-03T10:53:04.553Z,1.40
2018-07-03T10:55:33.475Z,1.00
2018-07-03T10:58:01.952Z,0.90
2018-07-03T11:00:30.168Z,0.90
2018-07-03T11:02:58.621Z,1.43
2018-07-03T11:05:27.282Z,1.17
2018-07-03T11:07:55.760Z,1.10
2018-07-03T11:10:24.192Z,1.10
2018-07-03T11:12:52.656Z,0.90
2018-07-03T11:15:21.093Z,1.10
2018-07-03T11:17:49.565Z,0.80
2018-07-03T11:20:18.130Z,0.70
2018-07-03T11:22:46.536Z,1.10
2018-07-03T11:25:15.033Z,1.00
2018-07-03T11:27:43.481Z,0.90
2018-07-03T11:30:11.933Z,1.07
2018-07-03T11:32:40.384Z,1.00
2018-07-03T11:35:08.905Z,1.17
2018-07-03T11:37:37.343Z,0.90
2018-07-03T11:40:05.988Z,0.90
2018-07-03T11:42:34.444Z,1.20
2018-07-03T11:45:02.942Z,0.90
2018-07-03T11:47:31.501Z,0.90
2018-07-03T11:49:59.942Z,0.97
2018-07-03T11:52:29.038Z,1.23
2018-07-03T11:54:57.201Z,1.00
2018-07-03T11:57:25.692Z,0.93
2018-07-03T11:59:54.128Z,0.90
2018-07-03T12:02:22.620Z,0.90
2018-07-03T12:04:51.092Z,1.00
2018-07-03T12:07:19.547Z,1.00
2018-07-03T12:09:47.993Z,0.90
2018-07-03T12:12:16.440Z,0.90
2018-07-03T12:14:44.896Z,0.67
2018-07-03T12:17:13.344Z,1.00
2018-07-03T12:19:41.859Z,0.80
2018-07-03T12:22:10.384Z,1.13
2018-07-03T12:24:38.901Z,1.10
2018-07-03T12:27:07.359Z,0.70
2018-07-03T12:29:35.976Z,0.80
2018-07-03T12:32:04.448Z,0.70
2018-07-03T12:34:33.160Z,1.00
2018-07-03T12:37:01.601Z,0.97
2018-07-03T12:39:30.059Z,0.93
2018-07-03T12:41:58.214Z,1.00
2018-07-03T12:44:26.672Z,0.90
2018-07-03T12:46:55.142Z,1.20
2018-07-03T12:49:23.572Z,1.03
2018-07-03T12:51:52.056Z,0.83
2018-07-03T12:54:20.188Z,1.27
2018-07-03T12:56:48.645Z,0.83
2018-07-03T12:59:17.125Z,0.90
2018-07-03T13:01:45.584Z,1.03
2018-07-03T13:04:14.074Z,1.00
2018-07-03T13:06:42.579Z,1.00
2018-07-03T13:09:12.237Z,0.90
2018-07-03T13:11:40.798Z,1.00
2018-07-03T13:14:09.364Z,0.90
2018-07-03T13:16:38.033Z,0.90
2018-07-03T13:19:06.501Z,0.95
2018-07-03T13:21:34.957Z,0.80
2018-07-03T13:24:03.441Z,1.47
2018-07-03T13:26:31.890Z,0.87
2018-07-03T13:29:00.361Z,1.10
2018-07-03T13:31:28.951Z,1.00
2018-07-03T13:33:57.500Z,0.80
2018-07-03T13:36:25.947Z,1.00
2018-07-03T13:38:54.401Z,1.43
2018-07-03T13:41:22.853Z,1.00
2018-07-03T13:43:51.314Z,1.00
2018-07-03T13:46:19.744Z,1.30
2018-07-03T13:48:48.221Z,1.00
2018-07-03T13:51:16.728Z,0.80
2018-07-03T13:53:45.177Z,1.00
2018-07-03T13:56:13.601Z,1.10
2018-07-03T13:58:42.101Z,1.10
2018-07-03T14:01:10.672Z,1.07
2018-07-03T14:03:39.213Z,0.97
2018-07-03T14:06:07.656Z,1.07
2018-07-03T14:08:36.079Z,0.80
2018-07-03T14:11:04.560Z,0.80
2018-07-03T14:13:33.004Z,0.90
2018-07-03T14:16:01.506Z,1.00
2018-07-03T14:18:29.945Z,0.97
2018-07-03T14:20:59.356Z,0.90
2018-07-03T14:23:28.825Z,0.87
2018-07-03T14:25:57.408Z,1.30
2018-07-03T14:28:25.845Z,1.00
2018-07-03T14:30:54.309Z,1.00
2018-07-03T14:33:22.868Z,0.80
2018-07-03T14:35:51.422Z,1.03
2018-07-03T14:38:19.884Z,0.73
2018-07-03T14:40:48.322Z,0.90
2018-07-03T14:43:16.840Z,0.83
2018-07-03T14:45:45.388Z,0.70
2018-07-03T14:48:13.856Z,0.80
2018-07-03T14:50:42.415Z,0.87
2018-07-03T14:53:10.817Z,0.90
2018-07-03T14:55:39.280Z,0.80
2018-07-03T14:58:07.784Z,0.97
2018-07-03T15:00:36.340Z,0.80
2018-07-03T15:03:04.961Z,0.80
2018-07-03T15:05:33.426Z,0.90
2018-07-03T15:08:01.530Z,0.83
2018-07-03T15:10:30.042Z,5.00
2018-07-03T15:12:58.481Z,1.90
2018-07-03T15:15:27.418Z,1.13
2018-07-03T15:17:55.885Z,0.90
2018-07-03T15:20:24.369Z,1.10
2018-07-03T15:22:52.883Z,1.07
2018-07-03T15:25:21.356Z,1.03
2018-07-03T15:27:49.794Z,0.87
2018-07-03T15:30:19.849Z,1.10
2018-07-03T15:32:48.556Z,0.97
2018-07-03T15:35:17.020Z,1.07
2018-07-03T15:37:46.096Z,0.93
2018-07-03T15:40:14.555Z,0.77
2018-07-03T15:42:43.046Z,1.30
2018-07-03T15:45:13.797Z,0.97
2018-07-03T15:47:42.377Z,1.20
2018-07-03T15:50:12.078Z,1.27
2018-07-03T15:52:40.553Z,1.10
2018-07-03T15:55:09.764Z,0.90
2018-07-03T15:57:38.226Z,0.80
2018-07-03T16:00:09.077Z,1.10
2018-07-03T16:02:37.493Z,0.93
2018-07-03T16:05:18.556Z,0.90
2018-07-03T16:09:57.110Z,0.80
2018-07-03T16:12:25.640Z,1.00
2018-07-03T16:14:54.084Z,1.20
2018-07-03T16:17:22.537Z,0.90
2018-07-03T16:19:56.332Z,0.90
2018-07-03T16:22:24.932Z,0.90
2018-07-03T16:24:53.394Z,1.17
2018-07-03T16:27:21.845Z,0.93
2018-07-03T16:29:50.336Z,1.20
2018-07-03T16:32:18.800Z,1.60
2018-07-03T16:34:47.246Z,0.90
2018-07-03T16:37:15.992Z,0.80
2018-07-03T16:39:44.508Z,1.00
2018-07-03T16:42:12.977Z,1.30
2018-07-03T16:44:41.456Z,1.23
2018-07-03T16:47:09.924Z,1.00
2018-07-03T16:49:38.389Z,1.40
2018-07-03T16:52:06.686Z,1.20
2018-07-03T16:54:35.161Z,1.30
2018-07-03T16:57:03.620Z,1.80
2018-07-03T16:59:32.056Z,1.47
2018-07-03T17:02:00.498Z,1.00
2018-07-03T17:04:28.928Z,1.10
2018-07-03T17:06:57.444Z,1.00
2018-07-03T17:09:25.632Z,1.10
2018-07-03T17:11:54.157Z,1.60
2018-07-03T17:14:22.597Z,1.70
2018-07-03T17:16:51.089Z,1.80
2018-07-03T17:19:24.777Z,1.20
2018-07-03T17:21:53.241Z,1.47
2018-07-03T17:24:21.377Z,1.70
2018-07-03T17:26:49.841Z,0.87
2018-07-03T17:29:18.288Z,0.80
2018-07-03T17:31:46.728Z,1.30
2018-07-03T17:34:15.173Z,1.17
2018-07-03T17:36:43.690Z,1.10
2018-07-03T17:39:15.236Z,1.10
2018-07-03T17:41:48.935Z,1.20
2018-07-03T17:44:28.792Z,1.00
2018-07-03T17:46:56.976Z,1.20
2018-07-03T17:49:25.418Z,1.13
2018-07-03T17:51:53.881Z,1.27
2018-07-03T17:54:22.321Z,0.90
2018-07-03T17:56:50.788Z,0.90
2018-07-03T17:59:19.413Z,1.17
2018-07-03T18:01:47.952Z,1.03
2018-07-03T18:04:16.079Z,1.10
2018-07-03T18:06:44.525Z,1.73
2018-07-03T18:09:13.655Z,1.10
2018-07-03T18:11:42.149Z,1.10
2018-07-03T18:14:10.660Z,1.37
2018-07-03T18:16:39.216Z,1.03
2018-07-03T18:19:13.153Z,1.03
2018-07-03T18:21:41.641Z,1.17
2018-07-03T18:24:10.076Z,0.90
2018-07-03T18:26:38.521Z,1.23
2018-07-03T18:29:06.984Z,1.00
2018-07-03T18:31:35.420Z,1.53
2018-07-03T18:34:03.950Z,1.37
2018-07-03T18:36:32.404Z,1.27
2018-07-03T18:39:00.849Z,1.27
2018-07-03T18:41:29.286Z,1.50
2018-07-03T18:43:57.893Z,1.33
2018-07-03T18:46:26.339Z,1.40
2018-07-03T18:48:54.801Z,1.37
2018-07-03T18:51:23.241Z,1.83
2018-07-03T18:53:51.688Z,1.23
2018-07-03T18:56:20.120Z,1.50
2018-07-03T18:58:48.549Z,1.20
2018-07-03T19:01:17.004Z,1.20
2018-07-03T19:03:45.454Z,1.30
2018-07-03T19:06:13.917Z,1.20
2018-07-03T19:08:42.389Z,1.40
2018-07-03T19:11:10.836Z,1.30
2018-07-03T19:13:39.287Z,1.00
2018-07-03T19:16:07.741Z,1.50
2018-07-03T19:18:36.217Z,1.43
2018-07-03T19:21:04.761Z,1.40
2018-07-03T19:23:33.192Z,1.43
2018-07-03T19:26:01.832Z,1.17
2018-07-03T19:28:30.294Z,1.30
2018-07-03T19:30:58.783Z,1.30
2018-07-03T19:33:27.200Z,1.40
2018-07-03T19:35:55.640Z,1.57
2018-07-03T19:38:24.119Z,1.23
2018-07-03T19:40:52.532Z,1.60
2018-07-03T19:43:26.462Z,1.40
2018-07-03T19:45:55.446Z,1.13
2018-07-03T19:48:23.876Z,1.50
2018-07-03T19:50:53.092Z,1.63
2018-07-03T19:53:21.521Z,1.40
2018-07-03T19:55:51.290Z,1.20
2018-07-03T19:58:20.080Z,1.77
2018-07-03T20:00:49.693Z,1.30
2018-07-03T20:03:18.230Z,1.30
2018-07-03T20:05:46.688Z,1.40
2018-07-03T20:08:15.156Z,1.40
2018-07-03T20:10:43.303Z,1.33
2018-07-03T20:13:13.534Z,1.50
2018-07-03T20:15:42.001Z,1.27
2018-07-03T20:18:11.713Z,1.50
2018-07-03T20:20:40.220Z,1.80
2018-07-03T20:23:08.733Z,1.40
2018-07-03T20:25:38.077Z,1.57
2018-07-03T20:28:06.670Z,1.73
2018-07-03T20:30:35.129Z,1.33
2018-07-03T20:33:03.595Z,1.80
2018-07-03T20:35:32.017Z,1.40
2018-07-03T20:38:02.833Z,1.33
2018-07-03T20:40:39.988Z,1.57
2018-07-03T20:43:08.445Z,1.73
2018-07-03T20:45:36.892Z,1.87
2018-07-03T20:48:05.364Z,1.80
2018-07-03T20:50:33.772Z,1.87
2018-07-03T20:53:02.196Z,1.80
2018-07-03T20:55:30.653Z,1.77
2018-07-03T20:57:59.232Z,1.83
2018-07-03T21:00:27.675Z,2.00
2018-07-03T21:02:56.165Z,1.93
2018-07-03T21:05:24.625Z,1.37
2018-07-03T21:07:53.040Z,2.10
2018-07-03T21:10:21.480Z,2.00
2018-07-03T21:12:50.000Z,2.10
2018-07-03T21:15:18.440Z,1.77
2018-07-03T21:17:46.865Z,1.90
2018-07-03T21:20:15.284Z,1.77
2018-07-03T21:22:43.741Z,1.87
2018-07-03T21:25:12.163Z,1.67
2018-07-03T21:27:41.454Z,1.80
2018-07-03T21:30:09.636Z,1.70
2018-07-03T21:32:38.077Z,1.57
2018-07-03T21:35:07.363Z,1.60
2018-07-03T21:37:35.809Z,1.80
2018-07-03T21:40:04.329Z,1.70
2018-07-03T21:42:32.740Z,1.60
2018-07-03T21:45:01.164Z,1.53
2018-07-03T21:47:29.587Z,1.60
2018-07-03T21:49:57.992Z,1.57
2018-07-03T21:52:26.428Z,1.80
2018-07-03T21:54:54.840Z,1.77
2018-07-03T21:57:23.304Z,1.80
2018-07-03T21:59:52.029Z,1.50
2018-07-03T22:02:20.456Z,1.67
2018-07-03T22:04:48.908Z,2.50
2018-07-03T22:07:17.317Z,1.50
2018-07-03T22:09:45.796Z,1.57
2018-07-03T22:12:14.261Z,1.90
2018-07-03T22:14:43.121Z,1.70
2018-07-03T22:17:12.353Z,1.60
2018-07-03T22:19:41.336Z,1.97
2018-07-03T22:22:09.858Z,2.00
2018-07-03T22:24:38.268Z,1.90
2018-07-03T22:27:06.699Z,1.97
2018-07-03T22:29:35.120Z,1.83
2018-07-03T22:32:03.880Z,2.07
2018-07-03T22:34:32.284Z,1.83
2018-07-03T22:37:00.701Z,1.57
2018-07-03T22:39:29.197Z,1.83
2018-07-03T22:41:57.561Z,1.87
2018-07-03T22:44:25.982Z,1.70
2018-07-03T22:46:54.396Z,1.80
2018-07-03T22:49:22.845Z,2.00
2018-07-03T22:51:51.268Z,2.37
2018-07-03T22:54:19.700Z,1.87
2018-07-03T22:56:48.133Z,1.70
2018-07-03T22:59:16.241Z,1.83
2018-07-03T23:01:44.741Z,2.10
2018-07-03T23:04:13.160Z,1.67
2018-07-03T23:06:41.625Z,1.70
2018-07-03T23:09:10.037Z,1.63
2018-07-03T23:11:38.557Z,2.60
2018-07-03T23:14:06.992Z,1.60
2018-07-03T23:16:35.400Z,2.00
2018-07-03T23:19:03.837Z,2.03
2018-07-03T23:21:32.309Z,2.07
2018-07-03T23:24:00.772Z,2.23
2018-07-03T23:26:29.186Z,1.83
2018-07-03T23:28:57.611Z,1.57
2018-07-03T23:31:26.049Z,1.77
2018-07-03T23:33:54.473Z,1.73
2018-07-03T23:36:22.904Z,1.87
2018-07-03T23:38:50.996Z,1.53
2018-07-03T23:41:19.452Z,1.57
2018-07-03T23:43:47.543Z,1.93
2018-07-03T23:46:27.180Z,1.70
2018-07-03T23:49:06.869Z,1.80
2018-07-03T23:51:46.632Z,1.53
2018-07-03T23:54:26.252Z,1.80
2018-07-03T23:57:05.833Z,2.17
2018-07-03T23:59:45.559Z,1.90
